sensor_id;sensor_type;location;lat;lon;timestamp;pressure;altitude;pressure_sealevel;temperature;humidity
21100;BME280;10708;50.824;4.408;2023-02-28T00:03:16;101988.66;;;0.84;100.00
21100;BME280;10708;50.824;4.408;2023-02-28T00:08:20;101986.88;;;0.82;100.00
21100;BME280;10708;50.824;4.408;2023-02-28T00:13:22;101982.41;;;0.76;100.00
21100;BME280;10708;50.824;4.408;2023-02-28T00:18:25;101981.44;;;0.72;100.00
21100;BME280;10708;50.824;4.408;2023-02-28T00:23:29;101970.09;;;0.67;100.00
21100;BME280;10708;50.824;4.408;2023-02-28T00:28:31;101985.59;;;0.66;100.00
21100;BME280;10708;50.824;4.408;2023-02-28T00:33:33;101987.25;;;0.64;100.00
21100;BME280;10708;50.824;4.408;2023-02-28T00:38:38;101982.84;;;0.60;100.00
21100;BME280;10708;50.824;4.408;2023-02-28T00:43:41;101987.94;;;0.57;100.00
21100;BME280;10708;50.824;4.408;2023-02-28T00:48:43;101991.25;;;0.53;100.00
21100;BME280;10708;50.824;4.408;2023-02-28T00:53:47;101993.69;;;0.47;100.00
21100;BME280;10708;50.824;4.408;2023-02-28T00:58:49;102001.28;;;0.39;100.00
21100;BME280;10708;50.824;4.408;2023-02-28T01:03:52;102000.25;;;0.34;100.00
21100;BME280;10708;50.824;4.408;2023-02-28T01:08:55;102000.03;;;0.26;100.00
21100;BME280;10708;50.824;4.408;2023-02-28T01:13:58;101992.00;;;0.17;100.00
21100;BME280;10708;50.824;4.408;2023-02-28T01:19:01;101998.84;;;0.15;100.00
21100;BME280;10708;50.824;4.408;2023-02-28T01:24:05;102000.38;;;0.09;100.00
21100;BME280;10708;50.824;4.408;2023-02-28T01:29:08;102003.69;;;0.05;100.00
21100;BME280;10708;50.824;4.408;2023-02-28T01:34:10;102008.88;;;0.05;100.00
21100;BME280;10708;50.824;4.408;2023-02-28T01:39:14;102006.19;;;0.02;100.00
21100;BME280;10708;50.824;4.408;2023-02-28T01:49:55;101996.75;;;0.04;100.00
21100;BME280;10708;50.824;4.408;2023-02-28T01:55:02;101998.47;;;0.03;100.00
21100;BME280;10708;50.824;4.408;2023-02-28T02:00:08;101993.28;;;0.03;100.00
21100;BME280;10708;50.824;4.408;2023-02-28T02:05:17;101989.69;;;-0.02;100.00
21100;BME280;10708;50.824;4.408;2023-02-28T02:10:25;101985.19;;;-0.08;100.00
21100;BME280;10708;50.824;4.408;2023-02-28T02:15:32;101978.25;;;-0.10;100.00
21100;BME280;10708;50.824;4.408;2023-02-28T02:26:37;101972.75;;;-0.19;100.00
21100;BME280;10708;50.824;4.408;2023-02-28T02:37:32;101966.41;;;-0.29;100.00
21100;BME280;10708;50.824;4.408;2023-02-28T02:42:42;101971.41;;;-0.35;100.00
21100;BME280;10708;50.824;4.408;2023-02-28T02:47:50;101957.50;;;-0.39;100.00
21100;BME280;10708;50.824;4.408;2023-02-28T02:52:58;101963.38;;;-0.44;100.00
21100;BME280;10708;50.824;4.408;2023-02-28T02:58:03;101967.56;;;-0.48;100.00
21100;BME280;10708;50.824;4.408;2023-02-28T03:03:08;101971.72;;;-0.53;100.00
21100;BME280;10708;50.824;4.408;2023-02-28T03:08:13;101968.16;;;-0.56;100.00
21100;BME280;10708;50.824;4.408;2023-02-28T03:13:32;101959.41;;;-0.60;100.00
21100;BME280;10708;50.824;4.408;2023-02-28T03:18:45;101967.91;;;-0.64;100.00
21100;BME280;10708;50.824;4.408;2023-02-28T03:24:01;101975.56;;;-0.67;100.00
21100;BME280;10708;50.824;4.408;2023-02-28T03:29:09;101978.09;;;-0.70;100.00
21100;BME280;10708;50.824;4.408;2023-02-28T03:34:24;101970.22;;;-0.73;100.00
21100;BME280;10708;50.824;4.408;2023-02-28T03:39:35;101973.56;;;-0.76;100.00
21100;BME280;10708;50.824;4.408;2023-02-28T03:44:41;101975.09;;;-0.82;100.00
21100;BME280;10708;50.824;4.408;2023-02-28T03:49:48;101977.63;;;-0.84;100.00
21100;BME280;10708;50.824;4.408;2023-02-28T03:54:54;101973.22;;;-0.86;100.00
21100;BME280;10708;50.824;4.408;2023-02-28T04:00:00;101972.28;;;-0.88;100.00
21100;BME280;10708;50.824;4.408;2023-02-28T04:05:07;101988.63;;;-0.89;100.00
21100;BME280;10708;50.824;4.408;2023-02-28T04:10:12;101982.56;;;-0.90;100.00
21100;BME280;10708;50.824;4.408;2023-02-28T04:15:15;101984.31;;;-0.90;100.00
21100;BME280;10708;50.824;4.408;2023-02-28T04:20:17;101984.19;;;-0.93;100.00
21100;BME280;10708;50.824;4.408;2023-02-28T04:25:21;101981.66;;;-0.92;100.00
21100;BME280;10708;50.824;4.408;2023-02-28T04:30:23;101977.16;;;-0.97;100.00
21100;BME280;10708;50.824;4.408;2023-02-28T04:35:26;101976.34;;;-0.96;100.00
21100;BME280;10708;50.824;4.408;2023-02-28T04:40:29;101984.16;;;-0.95;100.00
21100;BME280;10708;50.824;4.408;2023-02-28T04:45:32;101978.91;;;-0.96;100.00
21100;BME280;10708;50.824;4.408;2023-02-28T04:50:34;101981.44;;;-0.98;100.00
21100;BME280;10708;50.824;4.408;2023-02-28T04:55:38;101987.41;;;-1.00;100.00
21100;BME280;10708;50.824;4.408;2023-02-28T05:00:41;101990.78;;;-1.03;100.00
21100;BME280;10708;50.824;4.408;2023-02-28T05:05:43;101996.13;;;-0.97;100.00
21100;BME280;10708;50.824;4.408;2023-02-28T05:10:47;101999.84;;;-0.90;100.00
21100;BME280;10708;50.824;4.408;2023-02-28T05:15:49;101999.97;;;-0.86;100.00
21100;BME280;10708;50.824;4.408;2023-02-28T05:20:52;101996.81;;;-0.77;100.00
21100;BME280;10708;50.824;4.408;2023-02-28T05:25:56;102003.03;;;-0.72;100.00
21100;BME280;10708;50.824;4.408;2023-02-28T05:30:58;101997.94;;;-0.69;100.00
21100;BME280;10708;50.824;4.408;2023-02-28T05:36:01;101997.22;;;-0.65;100.00
21100;BME280;10708;50.824;4.408;2023-02-28T05:41:09;101996.50;;;-0.59;100.00
21100;BME280;10708;50.824;4.408;2023-02-28T05:46:12;101998.31;;;-0.57;100.00
21100;BME280;10708;50.824;4.408;2023-02-28T05:51:15;102015.78;;;-0.51;100.00
21100;BME280;10708;50.824;4.408;2023-02-28T05:56:20;102005.44;;;-0.50;100.00
21100;BME280;10708;50.824;4.408;2023-02-28T06:01:33;102003.84;;;-0.46;100.00
21100;BME280;10708;50.824;4.408;2023-02-28T06:06:36;102002.25;;;-0.43;100.00
21100;BME280;10708;50.824;4.408;2023-02-28T06:11:41;102004.91;;;-0.41;100.00
21100;BME280;10708;50.824;4.408;2023-02-28T06:16:44;102013.81;;;-0.31;100.00
21100;BME280;10708;50.824;4.408;2023-02-28T06:21:50;102019.88;;;-0.31;100.00
21100;BME280;10708;50.824;4.408;2023-02-28T06:26:55;102028.72;;;-0.24;100.00
21100;BME280;10708;50.824;4.408;2023-02-28T06:31:59;102021.94;;;-0.21;100.00
21100;BME280;10708;50.824;4.408;2023-02-28T06:37:02;102036.81;;;-0.14;100.00
21100;BME280;10708;50.824;4.408;2023-02-28T06:42:06;102037.03;;;-0.06;100.00
21100;BME280;10708;50.824;4.408;2023-02-28T06:47:08;102037.88;;;-0.07;100.00
21100;BME280;10708;50.824;4.408;2023-02-28T06:52:17;102024.09;;;-0.06;100.00
21100;BME280;10708;50.824;4.408;2023-02-28T06:57:21;102032.91;;;0.00;100.00
21100;BME280;10708;50.824;4.408;2023-02-28T07:02:26;102042.66;;;0.08;100.00
21100;BME280;10708;50.824;4.408;2023-02-28T07:07:28;102030.94;;;0.20;100.00
21100;BME280;10708;50.824;4.408;2023-02-28T07:12:32;102040.78;;;0.32;100.00
21100;BME280;10708;50.824;4.408;2023-02-28T07:17:34;102036.94;;;0.48;100.00
21100;BME280;10708;50.824;4.408;2023-02-28T07:22:36;102035.50;;;0.57;100.00
21100;BME280;10708;50.824;4.408;2023-02-28T07:27:41;102037.50;;;0.67;100.00
21100;BME280;10708;50.824;4.408;2023-02-28T07:32:43;102040.50;;;0.83;100.00
21100;BME280;10708;50.824;4.408;2023-02-28T07:37:46;102036.41;;;0.91;100.00
21100;BME280;10708;50.824;4.408;2023-02-28T07:42:50;102031.44;;;1.00;100.00
21100;BME280;10708;50.824;4.408;2023-02-28T07:47:52;102040.69;;;1.22;100.00
21100;BME280;10708;50.824;4.408;2023-02-28T07:52:55;102032.19;;;1.99;100.00
21100;BME280;10708;50.824;4.408;2023-02-28T07:57:59;102038.66;;;2.58;100.00
21100;BME280;10708;50.824;4.408;2023-02-28T08:03:02;102026.97;;;2.82;100.00
21100;BME280;10708;50.824;4.408;2023-02-28T08:08:04;102029.03;;;3.00;100.00
21100;BME280;10708;50.824;4.408;2023-02-28T08:13:09;102026.25;;;2.89;100.00
21100;BME280;10708;50.824;4.408;2023-02-28T08:18:11;102032.59;;;3.05;100.00
21100;BME280;10708;50.824;4.408;2023-02-28T08:23:14;102033.91;;;3.28;100.00
21100;BME280;10708;50.824;4.408;2023-02-28T08:28:18;102031.47;;;3.40;100.00
21100;BME280;10708;50.824;4.408;2023-02-28T08:33:20;102030.75;;;3.47;100.00
21100;BME280;10708;50.824;4.408;2023-02-28T08:38:23;102037.28;;;3.24;100.00
21100;BME280;10708;50.824;4.408;2023-02-28T08:43:28;102035.13;;;3.50;100.00
21100;BME280;10708;50.824;4.408;2023-02-28T08:48:31;102039.53;;;3.54;100.00
21100;BME280;10708;50.824;4.408;2023-02-28T08:53:34;102029.97;;;3.53;100.00
21100;BME280;10708;50.824;4.408;2023-02-28T08:58:39;102037.63;;;3.44;100.00
21100;BME280;10708;50.824;4.408;2023-02-28T09:03:42;102041.00;;;3.37;100.00
21100;BME280;10708;50.824;4.408;2023-02-28T09:08:45;102031.91;;;3.64;100.00
21100;BME280;10708;50.824;4.408;2023-02-28T09:13:49;102033.63;;;3.64;100.00
21100;BME280;10708;50.824;4.408;2023-02-28T09:18:52;102030.16;;;3.65;100.00
21100;BME280;10708;50.824;4.408;2023-02-28T09:23:54;102028.31;;;3.58;100.00
21100;BME280;10708;50.824;4.408;2023-02-28T09:28:58;102027.06;;;3.34;100.00
21100;BME280;10708;50.824;4.408;2023-02-28T09:34:00;102029.56;;;3.28;100.00
21100;BME280;10708;50.824;4.408;2023-02-28T09:39:03;102021.19;;;3.46;100.00
21100;BME280;10708;50.824;4.408;2023-02-28T09:44:15;102025.44;;;3.41;100.00
21100;BME280;10708;50.824;4.408;2023-02-28T09:49:23;102018.13;;;3.73;100.00
21100;BME280;10708;50.824;4.408;2023-02-28T09:54:30;102019.81;;;3.68;100.00
21100;BME280;10708;50.824;4.408;2023-02-28T09:59:41;102021.50;;;3.66;100.00
21100;BME280;10708;50.824;4.408;2023-02-28T10:04:50;102014.31;;;4.10;100.00
21100;BME280;10708;50.824;4.408;2023-02-28T10:09:57;102011.25;;;3.80;100.00
21100;BME280;10708;50.824;4.408;2023-02-28T10:15:03;102014.28;;;3.50;100.00
21100;BME280;10708;50.824;4.408;2023-02-28T10:20:11;102011.25;;;3.24;100.00
21100;BME280;10708;50.824;4.408;2023-02-28T10:25:18;102013.94;;;3.28;100.00
21100;BME280;10708;50.824;4.408;2023-02-28T10:30:22;102004.28;;;3.23;100.00
21100;BME280;10708;50.824;4.408;2023-02-28T10:35:26;102016.44;;;3.22;100.00
21100;BME280;10708;50.824;4.408;2023-02-28T10:40:31;102001.84;;;3.32;100.00
21100;BME280;10708;50.824;4.408;2023-02-28T10:45:35;101987.25;;;3.43;100.00
21100;BME280;10708;50.824;4.408;2023-02-28T10:50:43;101991.22;;;3.18;100.00
21100;BME280;10708;50.824;4.408;2023-02-28T10:55:56;101990.31;;;3.16;100.00
21100;BME280;10708;50.824;4.408;2023-02-28T11:01:00;101997.25;;;3.17;100.00
21100;BME280;10708;50.824;4.408;2023-02-28T11:06:07;101977.50;;;3.28;100.00
21100;BME280;10708;50.824;4.408;2023-02-28T11:11:14;101981.56;;;3.14;100.00
21100;BME280;10708;50.824;4.408;2023-02-28T11:16:19;101986.84;;;3.17;100.00
21100;BME280;10708;50.824;4.408;2023-02-28T11:21:26;101973.72;;;3.11;100.00
21100;BME280;10708;50.824;4.408;2023-02-28T11:26:37;101967.19;;;3.36;100.00
21100;BME280;10708;50.824;4.408;2023-02-28T11:31:40;101990.66;;;3.38;100.00
21100;BME280;10708;50.824;4.408;2023-02-28T11:36:43;101982.06;;;3.43;100.00
21100;BME280;10708;50.824;4.408;2023-02-28T11:41:56;101961.16;;;3.40;100.00
21100;BME280;10708;50.824;4.408;2023-02-28T11:47:10;101964.75;;;3.47;100.00
21100;BME280;10708;50.824;4.408;2023-02-28T11:52:21;101949.41;;;3.65;100.00
21100;BME280;10708;50.824;4.408;2023-02-28T11:57:44;101930.94;;;3.48;100.00
21100;BME280;10708;50.824;4.408;2023-02-28T12:03:03;101939.72;;;3.56;100.00
21100;BME280;10708;50.824;4.408;2023-02-28T12:08:25;101938.09;;;3.64;100.00
21100;BME280;10708;50.824;4.408;2023-02-28T12:13:37;101927.75;;;3.70;100.00
21100;BME280;10708;50.824;4.408;2023-02-28T12:18:56;101918.59;;;3.98;100.00
21100;BME280;10708;50.824;4.408;2023-02-28T12:24:14;101918.72;;;4.11;100.00
21100;BME280;10708;50.824;4.408;2023-02-28T12:29:26;101902.44;;;4.31;100.00
21100;BME280;10708;50.824;4.408;2023-02-28T12:34:35;101901.47;;;4.22;100.00
21100;BME280;10708;50.824;4.408;2023-02-28T12:39:43;101895.41;;;4.23;100.00
21100;BME280;10708;50.824;4.408;2023-02-28T12:44:49;101900.19;;;3.86;97.75
21100;BME280;10708;50.824;4.408;2023-02-28T12:49:58;101881.47;;;4.19;100.00
21100;BME280;10708;50.824;4.408;2023-02-28T12:55:05;101880.47;;;4.08;97.26
21100;BME280;10708;50.824;4.408;2023-02-28T13:00:13;101869.38;;;4.27;100.00
21100;BME280;10708;50.824;4.408;2023-02-28T13:05:46;101874.72;;;4.41;99.60
21100;BME280;10708;50.824;4.408;2023-02-28T13:10:52;101872.94;;;4.35;97.22
21100;BME280;10708;50.824;4.408;2023-02-28T13:16:04;101870.34;;;4.35;96.40
21100;BME280;10708;50.824;4.408;2023-02-28T13:21:22;101857.34;;;4.38;97.35
21100;BME280;10708;50.824;4.408;2023-02-28T13:32:27;101856.56;;;4.52;96.87
21100;BME280;10708;50.824;4.408;2023-02-28T13:37:35;101853.16;;;4.57;95.15
21100;BME280;10708;50.824;4.408;2023-02-28T13:42:47;101862.72;;;4.55;96.75
21100;BME280;10708;50.824;4.408;2023-02-28T13:47:53;101849.63;;;4.54;94.55
21100;BME280;10708;50.824;4.408;2023-02-28T13:53:17;101852.28;;;4.55;97.23
21100;BME280;10708;50.824;4.408;2023-02-28T13:58:38;101861.94;;;4.65;95.33
21100;BME280;10708;50.824;4.408;2023-02-28T14:03:58;101842.97;;;4.86;98.24
21100;BME280;10708;50.824;4.408;2023-02-28T14:09:19;101856.84;;;4.82;95.70
21100;BME280;10708;50.824;4.408;2023-02-28T14:14:55;101847.25;;;4.79;95.20
21100;BME280;10708;50.824;4.408;2023-02-28T14:19:58;101845.53;;;4.81;93.91
21100;BME280;10708;50.824;4.408;2023-02-28T14:25:10;101829.75;;;4.66;92.94
21100;BME280;10708;50.824;4.408;2023-02-28T14:30:40;101844.44;;;4.55;92.66
21100;BME280;10708;50.824;4.408;2023-02-28T14:35:52;101838.38;;;4.59;93.81
21100;BME280;10708;50.824;4.408;2023-02-28T14:41:04;101836.72;;;4.66;94.09
21100;BME280;10708;50.824;4.408;2023-02-28T14:46:11;101835.75;;;4.56;91.60
21100;BME280;10708;50.824;4.408;2023-02-28T14:51:19;101839.34;;;4.67;93.17
21100;BME280;10708;50.824;4.408;2023-02-28T14:56:26;101845.50;;;4.77;92.15
21100;BME280;10708;50.824;4.408;2023-02-28T15:01:31;101836.81;;;4.78;93.48
21100;BME280;10708;50.824;4.408;2023-02-28T15:06:34;101839.47;;;4.84;93.58
21100;BME280;10708;50.824;4.408;2023-02-28T15:11:41;101829.03;;;4.84;93.87
21100;BME280;10708;50.824;4.408;2023-02-28T15:16:51;101830.72;;;4.76;93.56
21100;BME280;10708;50.824;4.408;2023-02-28T15:21:58;101829.78;;;4.72;94.01
21100;BME280;10708;50.824;4.408;2023-02-28T15:27:06;101832.41;;;4.74;93.60
21100;BME280;10708;50.824;4.408;2023-02-28T15:32:29;101840.22;;;4.71;94.21
21100;BME280;10708;50.824;4.408;2023-02-28T15:37:40;101842.09;;;4.86;97.68
21100;BME280;10708;50.824;4.408;2023-02-28T15:42:57;101843.81;;;4.85;94.77
21100;BME280;10708;50.824;4.408;2023-02-28T15:48:00;101844.66;;;4.82;95.02
21100;BME280;10708;50.824;4.408;2023-02-28T15:53:03;101838.59;;;4.85;95.86
21100;BME280;10708;50.824;4.408;2023-02-28T15:58:11;101839.50;;;4.87;95.51
21100;BME280;10708;50.824;4.408;2023-02-28T16:03:26;101847.34;;;4.87;95.98
21100;BME280;10708;50.824;4.408;2023-02-28T16:08:29;101840.28;;;4.77;94.30
21100;BME280;10708;50.824;4.408;2023-02-28T16:13:33;101850.75;;;4.78;95.15
21100;BME280;10708;50.824;4.408;2023-02-28T16:18:35;101842.81;;;4.69;94.63
21100;BME280;10708;50.824;4.408;2023-02-28T16:23:41;101842.81;;;4.68;95.51
21100;BME280;10708;50.824;4.408;2023-02-28T16:28:45;101851.44;;;4.62;96.09
21100;BME280;10708;50.824;4.408;2023-02-28T16:33:47;101863.78;;;4.77;98.19
21100;BME280;10708;50.824;4.408;2023-02-28T16:38:50;101869.78;;;4.70;97.27
21100;BME280;10708;50.824;4.408;2023-02-28T16:43:55;101872.25;;;4.55;96.11
21100;BME280;10708;50.824;4.408;2023-02-28T16:49:01;101861.94;;;4.65;95.88
21100;BME280;10708;50.824;4.408;2023-02-28T16:54:03;101870.66;;;4.69;96.97
21100;BME280;10708;50.824;4.408;2023-02-28T16:59:08;101873.91;;;4.45;97.52
21100;BME280;10708;50.824;4.408;2023-02-28T17:04:11;101880.69;;;4.29;96.59
21100;BME280;10708;50.824;4.408;2023-02-28T17:09:17;101883.28;;;4.26;99.42
21100;BME280;10708;50.824;4.408;2023-02-28T17:14:22;101895.28;;;4.12;98.31
21100;BME280;10708;50.824;4.408;2023-02-28T17:19:25;101902.94;;;3.98;98.26
21100;BME280;10708;50.824;4.408;2023-02-28T17:24:30;101905.44;;;3.89;98.19
21100;BME280;10708;50.824;4.408;2023-02-28T17:29:34;101914.88;;;3.81;98.39
21100;BME280;10708;50.824;4.408;2023-02-28T17:34:36;101926.03;;;3.72;99.08
21100;BME280;10708;50.824;4.408;2023-02-28T17:39:38;101934.69;;;3.68;99.69
21100;BME280;10708;50.824;4.408;2023-02-28T17:44:42;101941.50;;;3.59;99.95
21100;BME280;10708;50.824;4.408;2023-02-28T17:49:45;101946.53;;;3.50;99.88
21100;BME280;10708;50.824;4.408;2023-02-28T17:54:47;101948.22;;;3.45;100.00
21100;BME280;10708;50.824;4.408;2023-02-28T17:59:51;101936.88;;;3.41;100.00
21100;BME280;10708;50.824;4.408;2023-02-28T18:04:53;101948.91;;;3.33;100.00
21100;BME280;10708;50.824;4.408;2023-02-28T18:09:55;101948.00;;;3.31;100.00
21100;BME280;10708;50.824;4.408;2023-02-28T18:14:59;101956.59;;;3.25;100.00
21100;BME280;10708;50.824;4.408;2023-02-28T18:20:01;101954.75;;;3.18;100.00
21100;BME280;10708;50.824;4.408;2023-02-28T18:25:06;101961.56;;;3.12;100.00
21100;BME280;10708;50.824;4.408;2023-02-28T18:30:16;101960.63;;;3.07;100.00
21100;BME280;10708;50.824;4.408;2023-02-28T18:35:19;101965.78;;;3.04;100.00
21100;BME280;10708;50.824;4.408;2023-02-28T18:40:34;101971.81;;;3.03;100.00
21100;BME280;10708;50.824;4.408;2023-02-28T18:45:38;101973.50;;;2.97;100.00
21100;BME280;10708;50.824;4.408;2023-02-28T18:50:41;101967.31;;;2.92;100.00
21100;BME280;10708;50.824;4.408;2023-02-28T18:55:43;101965.53;;;2.88;100.00
21100;BME280;10708;50.824;4.408;2023-02-28T19:00:48;101960.22;;;2.84;100.00
21100;BME280;10708;50.824;4.408;2023-02-28T19:05:53;101964.47;;;2.79;100.00
21100;BME280;10708;50.824;4.408;2023-02-28T19:10:55;101963.59;;;2.78;100.00
21100;BME280;10708;50.824;4.408;2023-02-28T19:16:02;101963.47;;;2.72;100.00
21100;BME280;10708;50.824;4.408;2023-02-28T19:21:06;101966.88;;;2.68;100.00
21100;BME280;10708;50.824;4.408;2023-02-28T19:26:10;101966.75;;;2.62;100.00
21100;BME280;10708;50.824;4.408;2023-02-28T19:31:16;101964.00;;;2.54;100.00
21100;BME280;10708;50.824;4.408;2023-02-28T19:36:19;101965.78;;;2.55;100.00
21100;BME280;10708;50.824;4.408;2023-02-28T19:41:22;101974.31;;;2.50;100.00
21100;BME280;10708;50.824;4.408;2023-02-28T19:46:26;101966.44;;;2.45;100.00
21100;BME280;10708;50.824;4.408;2023-02-28T19:51:29;101972.41;;;2.41;100.00
21100;BME280;10708;50.824;4.408;2023-02-28T19:56:31;101979.28;;;2.38;100.00
21100;BME280;10708;50.824;4.408;2023-02-28T20:01:36;101990.50;;;2.35;100.00
21100;BME280;10708;50.824;4.408;2023-02-28T20:06:38;101998.22;;;2.32;100.00
21100;BME280;10708;50.824;4.408;2023-02-28T20:11:41;101993.78;;;2.27;100.00
21100;BME280;10708;50.824;4.408;2023-02-28T20:16:45;101989.44;;;2.26;100.00
21100;BME280;10708;50.824;4.408;2023-02-28T20:21:47;102001.56;;;2.25;100.00
21100;BME280;10708;50.824;4.408;2023-02-28T20:26:49;102002.41;;;2.24;100.00
21100;BME280;10708;50.824;4.408;2023-02-28T20:31:53;101987.56;;;2.20;100.00
21100;BME280;10708;50.824;4.408;2023-02-28T20:36:57;101987.50;;;2.15;100.00
21100;BME280;10708;50.824;4.408;2023-02-28T20:41:59;101999.53;;;2.12;100.00
21100;BME280;10708;50.824;4.408;2023-02-28T20:47:04;101993.34;;;2.05;100.00
21100;BME280;10708;50.824;4.408;2023-02-28T20:52:07;101989.75;;;1.99;100.00
21100;BME280;10708;50.824;4.408;2023-02-28T20:57:09;101991.41;;;1.97;100.00
21100;BME280;10708;50.824;4.408;2023-02-28T21:02:14;101992.09;;;1.88;100.00
21100;BME280;10708;50.824;4.408;2023-02-28T21:07:18;102002.44;;;1.87;100.00
21100;BME280;10708;50.824;4.408;2023-02-28T21:12:20;101992.78;;;1.79;100.00
21100;BME280;10708;50.824;4.408;2023-02-28T21:17:24;101995.25;;;1.75;100.00
21100;BME280;10708;50.824;4.408;2023-02-28T21:22:27;101979.53;;;1.70;100.00
21100;BME280;10708;50.824;4.408;2023-02-28T21:27:29;101981.97;;;1.63;100.00
21100;BME280;10708;50.824;4.408;2023-02-28T21:32:33;101991.44;;;1.61;100.00
21100;BME280;10708;50.824;4.408;2023-02-28T21:37:36;101987.91;;;1.57;100.00
21100;BME280;10708;50.824;4.408;2023-02-28T21:42:39;101988.72;;;1.55;100.00
21100;BME280;10708;50.824;4.408;2023-02-28T21:47:43;101978.28;;;1.53;100.00
21100;BME280;10708;50.824;4.408;2023-02-28T21:52:46;101985.09;;;1.48;100.00
21100;BME280;10708;50.824;4.408;2023-02-28T21:57:49;101978.94;;;1.44;100.00
21100;BME280;10708;50.824;4.408;2023-02-28T22:02:53;101984.09;;;1.43;100.00
21100;BME280;10708;50.824;4.408;2023-02-28T22:07:58;101984.00;;;1.38;100.00
21100;BME280;10708;50.824;4.408;2023-02-28T22:13:01;101994.28;;;1.34;100.00
21100;BME280;10708;50.824;4.408;2023-02-28T22:18:05;101994.97;;;1.27;100.00
21100;BME280;10708;50.824;4.408;2023-02-28T22:23:07;102002.72;;;1.25;100.00
21100;BME280;10708;50.824;4.408;2023-02-28T22:28:11;102006.09;;;1.23;100.00
21100;BME280;10708;50.824;4.408;2023-02-28T22:33:15;101995.66;;;1.21;100.00
21100;BME280;10708;50.824;4.408;2023-02-28T22:38:19;102003.44;;;1.20;100.00
21100;BME280;10708;50.824;4.408;2023-02-28T22:43:22;102001.56;;;1.14;100.00
21100;BME280;10708;50.824;4.408;2023-02-28T22:48:26;101993.72;;;1.13;100.00
21100;BME280;10708;50.824;4.408;2023-02-28T22:53:29;101997.13;;;1.10;100.00
21100;BME280;10708;50.824;4.408;2023-02-28T22:58:32;101998.00;;;1.09;100.00
21100;BME280;10708;50.824;4.408;2023-02-28T23:03:36;101994.50;;;1.08;100.00
21100;BME280;10708;50.824;4.408;2023-02-28T23:08:42;101995.22;;;1.03;100.00
21100;BME280;10708;50.824;4.408;2023-02-28T23:13:45;102003.91;;;1.05;100.00
21100;BME280;10708;50.824;4.408;2023-02-28T23:19:00;102005.59;;;1.03;100.00
21100;BME280;10708;50.824;4.408;2023-02-28T23:24:05;102012.44;;;0.99;100.00
21100;BME280;10708;50.824;4.408;2023-02-28T23:29:10;102012.34;;;0.96;100.00
21100;BME280;10708;50.824;4.408;2023-02-28T23:34:16;102017.50;;;0.95;100.00
21100;BME280;10708;50.824;4.408;2023-02-28T23:39:25;102013.91;;;0.90;100.00
21100;BME280;10708;50.824;4.408;2023-02-28T23:44:28;102023.31;;;0.86;100.00
21100;BME280;10708;50.824;4.408;2023-02-28T23:49:33;102018.81;;;0.81;100.00
21100;BME280;10708;50.824;4.408;2023-02-28T23:54:35;102019.66;;;0.78;100.00
21100;BME280;10708;50.824;4.408;2023-02-28T23:59:38;102019.47;;;0.72;100.00
